createdAt,value
2017-08-29T00:01:40.506Z,16.50
2017-08-29T00:04:08.171Z,16.50
2017-08-29T00:06:36.791Z,16.50
2017-08-29T00:09:04.743Z,16.40
2017-08-29T00:11:32.376Z,16.30
2017-08-29T00:14:00.138Z,16.40
2017-08-29T00:16:27.818Z,16.30
2017-08-29T00:18:55.659Z,16.30
2017-08-29T00:21:23.425Z,16.20
2017-08-29T00:23:50.996Z,16.20
2017-08-29T00:26:18.631Z,16.20
2017-08-29T00:28:46.409Z,16.20
2017-08-29T00:31:13.983Z,16.10
2017-08-29T00:33:41.938Z,16.10
2017-08-29T00:36:09.712Z,16.10
2017-08-29T00:38:38.683Z,16.10
2017-08-29T00:41:06.312Z,16.10
2017-08-29T00:43:33.912Z,16.10
2017-08-29T00:46:01.485Z,16.10
2017-08-29T00:48:29.431Z,16.10
2017-08-29T00:50:57.030Z,16.10
2017-08-29T00:53:24.652Z,16.10
2017-08-29T00:55:52.435Z,16.10
2017-08-29T00:58:20.207Z,16.10
2017-08-29T01:00:47.766Z,16.10
2017-08-29T01:03:15.407Z,16.10
2017-08-29T01:05:43.163Z,16.00
2017-08-29T01:08:10.728Z,16.00
2017-08-29T01:10:38.310Z,16.00
2017-08-29T01:13:06.165Z,16.00
2017-08-29T01:15:33.747Z,15.90
2017-08-29T01:18:01.432Z,15.90
2017-08-29T01:20:29.023Z,15.80
2017-08-29T01:22:56.707Z,15.80
2017-08-29T01:25:24.354Z,15.70
2017-08-29T01:27:51.914Z,15.70
2017-08-29T01:30:19.590Z,15.70
2017-08-29T01:32:47.159Z,15.70
2017-08-29T01:35:14.757Z,15.70
2017-08-29T01:37:42.326Z,15.70
2017-08-29T01:40:09.920Z,15.80
2017-08-29T01:42:37.795Z,15.70
2017-08-29T01:45:05.351Z,15.70
2017-08-29T01:47:32.927Z,15.70
2017-08-29T01:50:00.511Z,15.70
2017-08-29T01:52:28.094Z,15.70
2017-08-29T01:54:55.670Z,15.60
2017-08-29T01:57:23.439Z,15.60
2017-08-29T01:59:51.248Z,15.60
2017-08-29T02:02:18.891Z,15.60
2017-08-29T02:04:46.469Z,15.50
2017-08-29T02:07:14.178Z,15.50
2017-08-29T02:09:41.952Z,15.50
2017-08-29T02:12:09.535Z,15.40
2017-08-29T02:14:37.148Z,15.40
2017-08-29T02:17:04.932Z,15.40
2017-08-29T02:19:32.816Z,15.40
2017-08-29T02:22:00.577Z,15.40
2017-08-29T02:24:28.238Z,15.50
2017-08-29T02:26:55.987Z,15.40
2017-08-29T02:29:23.753Z,15.40
2017-08-29T02:31:51.511Z,15.40
2017-08-29T02:34:19.289Z,15.30
2017-08-29T02:36:47.038Z,15.30
2017-08-29T02:39:14.825Z,15.20
2017-08-29T02:41:42.399Z,15.20
2017-08-29T02:44:09.988Z,15.20
2017-08-29T02:46:37.786Z,15.20
2017-08-29T02:49:05.555Z,15.30
2017-08-29T02:51:33.111Z,15.20
2017-08-29T02:54:00.698Z,15.20
2017-08-29T02:56:28.262Z,15.20
2017-08-29T02:58:55.990Z,15.10
2017-08-29T03:01:23.751Z,15.10
2017-08-29T03:03:51.531Z,15.10
2017-08-29T03:06:19.401Z,15.20
2017-08-29T03:08:46.960Z,15.00
2017-08-29T03:11:14.811Z,15.00
2017-08-29T03:13:42.395Z,15.00
2017-08-29T03:16:10.104Z,15.00
2017-08-29T03:18:37.814Z,15.00
2017-08-29T03:21:05.554Z,15.00
2017-08-29T03:23:33.632Z,15.00
2017-08-29T03:26:01.512Z,15.10
2017-08-29T03:28:29.159Z,15.00
2017-08-29T03:30:56.922Z,15.00
2017-08-29T03:33:24.670Z,15.00
2017-08-29T03:35:53.026Z,15.00
2017-08-29T03:38:20.605Z,15.00
2017-08-29T03:40:48.223Z,14.90
2017-08-29T03:43:16.049Z,14.90
2017-08-29T03:45:43.828Z,15.00
2017-08-29T03:48:11.431Z,15.00
2017-08-29T03:50:39.003Z,15.00
2017-08-29T03:53:06.808Z,14.90
2017-08-29T03:55:34.675Z,14.90
2017-08-29T03:58:02.438Z,14.90
2017-08-29T04:00:30.007Z,14.90
2017-08-29T04:02:57.589Z,14.90
2017-08-29T04:05:25.287Z,14.90
2017-08-29T04:07:53.054Z,14.80
2017-08-29T04:10:20.953Z,14.90
2017-08-29T04:12:48.610Z,14.90
2017-08-29T04:15:16.279Z,14.90
2017-08-29T04:17:43.868Z,14.80
2017-08-29T04:20:11.560Z,14.80
2017-08-29T04:22:39.334Z,14.80
2017-08-29T04:25:07.103Z,14.80
2017-08-29T04:27:35.191Z,14.80
2017-08-29T04:30:03.046Z,14.80
2017-08-29T04:32:30.616Z,14.80
2017-08-29T04:34:58.198Z,14.80
2017-08-29T04:37:26.042Z,14.90
2017-08-29T04:39:53.627Z,14.90
2017-08-29T04:42:21.570Z,14.90
2017-08-29T04:44:49.155Z,14.90
2017-08-29T04:47:16.978Z,14.90
2017-08-29T04:49:44.655Z,14.90
2017-08-29T04:52:12.214Z,14.80
2017-08-29T04:54:40.053Z,14.90
2017-08-29T04:57:07.715Z,14.90
2017-08-29T04:59:35.490Z,14.90
2017-08-29T05:02:03.083Z,14.80
2017-08-29T05:04:30.675Z,14.90
2017-08-29T05:06:58.255Z,14.90
2017-08-29T05:09:26.607Z,14.90
2017-08-29T05:11:54.199Z,14.90
2017-08-29T05:14:21.790Z,15.00
2017-08-29T05:16:49.368Z,15.00
2017-08-29T05:19:16.995Z,14.90
2017-08-29T05:21:44.743Z,15.00
2017-08-29T05:24:13.639Z,15.00
2017-08-29T05:26:41.260Z,15.00
2017-08-29T05:29:08.875Z,15.10
2017-08-29T05:31:36.458Z,15.10
2017-08-29T05:34:04.035Z,15.20
2017-08-29T05:36:31.943Z,15.20
2017-08-29T05:38:59.724Z,15.20
2017-08-29T05:41:27.779Z,15.20
2017-08-29T05:43:55.360Z,15.30
2017-08-29T05:46:23.027Z,15.30
2017-08-29T05:48:50.762Z,15.30
2017-08-29T05:51:18.323Z,15.40
2017-08-29T05:53:46.315Z,15.40
2017-08-29T05:56:14.011Z,15.30
2017-08-29T05:58:41.820Z,15.40
2017-08-29T06:01:09.386Z,15.50
2017-08-29T06:03:37.791Z,15.60
2017-08-29T06:06:05.862Z,15.60
2017-08-29T06:08:34.278Z,15.70
2017-08-29T06:11:02.195Z,15.80
2017-08-29T06:13:29.892Z,15.80
2017-08-29T06:15:57.699Z,15.90
2017-08-29T06:18:25.780Z,16.00
2017-08-29T06:20:53.510Z,16.00
2017-08-29T06:23:21.620Z,16.10
2017-08-29T06:25:49.343Z,16.10
2017-08-29T06:28:17.131Z,16.10
2017-08-29T06:30:44.719Z,16.20
2017-08-29T06:33:12.469Z,16.30
2017-08-29T06:35:40.194Z,16.30
2017-08-29T06:38:07.879Z,16.40
2017-08-29T06:40:35.947Z,16.50
2017-08-29T06:43:03.507Z,16.50
2017-08-29T06:45:31.099Z,16.60
2017-08-29T06:47:58.659Z,16.70
2017-08-29T06:50:26.507Z,16.70
2017-08-29T06:52:54.156Z,16.80
2017-08-29T06:55:21.916Z,16.90
2017-08-29T06:57:49.684Z,16.90
2017-08-29T07:00:17.435Z,17.00
2017-08-29T07:02:45.187Z,17.10
2017-08-29T07:05:12.986Z,17.10
2017-08-29T07:07:41.284Z,17.20
2017-08-29T07:10:08.846Z,17.30
2017-08-29T07:12:36.687Z,17.30
2017-08-29T07:15:04.308Z,17.40
2017-08-29T07:17:31.892Z,17.40
2017-08-29T07:19:59.558Z,17.40
2017-08-29T07:22:27.157Z,17.60
2017-08-29T07:24:54.765Z,17.70
2017-08-29T07:27:22.808Z,17.70
2017-08-29T07:29:50.362Z,17.80
2017-08-29T07:32:18.067Z,17.80
2017-08-29T07:34:45.627Z,17.90
2017-08-29T07:37:13.283Z,18.00
2017-08-29T07:39:40.872Z,18.00
2017-08-29T07:42:08.516Z,18.00
2017-08-29T07:44:36.386Z,18.10
2017-08-29T07:47:04.346Z,18.20
2017-08-29T07:49:31.927Z,18.20
2017-08-29T07:51:59.523Z,18.30
2017-08-29T07:54:27.334Z,18.20
2017-08-29T07:56:55.308Z,18.20
2017-08-29T07:59:22.891Z,18.20
2017-08-29T08:01:50.732Z,18.30
2017-08-29T08:04:18.315Z,18.30
2017-08-29T08:06:45.889Z,18.30
2017-08-29T08:09:13.594Z,18.50
2017-08-29T08:11:41.172Z,18.40
2017-08-29T08:14:08.747Z,18.50
2017-08-29T08:16:36.318Z,18.50
2017-08-29T08:19:04.043Z,18.50
2017-08-29T08:21:31.622Z,18.60
2017-08-29T08:23:59.211Z,18.70
2017-08-29T08:26:27.018Z,18.80
2017-08-29T08:28:54.656Z,18.80
2017-08-29T08:31:22.219Z,18.90
2017-08-29T08:33:50.124Z,19.10
2017-08-29T08:36:17.695Z,19.10
2017-08-29T08:38:45.260Z,19.20
2017-08-29T08:41:12.993Z,19.20
2017-08-29T08:43:40.734Z,19.30
2017-08-29T08:46:08.322Z,19.40
2017-08-29T08:48:35.984Z,19.40
2017-08-29T08:51:05.083Z,19.40
2017-08-29T08:53:32.731Z,19.50
2017-08-29T08:56:00.495Z,19.50
2017-08-29T08:58:28.236Z,19.70
2017-08-29T09:00:56.610Z,19.90
2017-08-29T09:03:24.234Z,20.00
2017-08-29T09:05:52.171Z,19.90
2017-08-29T09:08:19.995Z,20.00
2017-08-29T09:10:47.691Z,20.10
2017-08-29T09:13:15.447Z,20.20
2017-08-29T09:15:43.039Z,20.40
2017-08-29T09:18:10.603Z,20.60
2017-08-29T09:20:38.214Z,20.50
2017-08-29T09:23:05.782Z,20.70
2017-08-29T09:25:33.462Z,20.80
2017-08-29T09:28:01.032Z,21.00
2017-08-29T09:33:02.788Z,20.80
2017-08-29T09:35:30.562Z,20.90
2017-08-29T09:37:58.144Z,21.00
2017-08-29T09:40:25.721Z,21.00
2017-08-29T09:42:53.299Z,20.90
2017-08-29T09:45:21.107Z,20.80
2017-08-29T09:47:48.973Z,21.00
2017-08-29T09:50:16.543Z,21.20
2017-08-29T09:52:44.283Z,21.30
2017-08-29T09:55:12.041Z,21.20
2017-08-29T09:57:39.644Z,21.30
2017-08-29T10:00:07.230Z,21.40
2017-08-29T10:02:34.836Z,21.60
2017-08-29T10:05:02.601Z,21.70
2017-08-29T10:07:30.204Z,21.70
2017-08-29T10:09:57.767Z,21.90
2017-08-29T10:12:25.339Z,22.00
2017-08-29T10:14:53.475Z,21.90
2017-08-29T10:17:21.168Z,21.80
2017-08-29T10:19:48.751Z,22.00
2017-08-29T10:22:16.524Z,22.20
2017-08-29T10:24:44.303Z,22.20
2017-08-29T10:27:12.075Z,22.40
2017-08-29T10:29:39.995Z,22.50
2017-08-29T10:32:07.563Z,22.40
2017-08-29T10:34:35.145Z,22.40
2017-08-29T10:37:02.755Z,22.40
2017-08-29T10:39:30.356Z,22.60
2017-08-29T10:41:57.914Z,22.60
2017-08-29T10:44:25.512Z,22.80
2017-08-29T10:46:53.088Z,23.00
2017-08-29T10:49:20.655Z,22.90
2017-08-29T10:51:48.246Z,23.10
2017-08-29T10:54:16.133Z,22.80
2017-08-29T10:56:43.707Z,23.00
2017-08-29T10:59:11.273Z,23.20
2017-08-29T11:01:39.316Z,23.30
2017-08-29T11:04:07.099Z,23.50
2017-08-29T11:06:34.837Z,23.50
2017-08-29T11:09:02.396Z,23.50
2017-08-29T11:11:30.055Z,23.60
2017-08-29T11:13:57.819Z,23.60
2017-08-29T11:16:25.583Z,23.60
2017-08-29T11:18:53.138Z,23.60
2017-08-29T11:21:20.847Z,23.50
2017-08-29T11:23:48.406Z,23.60
2017-08-29T11:26:16.302Z,23.80
2017-08-29T11:28:43.875Z,23.80
2017-08-29T11:31:12.227Z,24.20
2017-08-29T11:33:39.796Z,24.10
2017-08-29T11:36:07.392Z,24.20
2017-08-29T11:38:34.964Z,24.40
2017-08-29T11:41:02.551Z,24.50
2017-08-29T11:43:30.135Z,24.50
2017-08-29T11:45:57.806Z,24.50
2017-08-29T11:48:25.383Z,24.60
2017-08-29T11:50:52.942Z,24.60
2017-08-29T11:53:20.534Z,24.50
2017-08-29T11:55:48.124Z,24.60
2017-08-29T11:58:15.716Z,24.80
2017-08-29T12:00:43.455Z,24.90
2017-08-29T12:03:11.978Z,24.80
2017-08-29T12:05:40.073Z,24.90
2017-08-29T12:08:08.701Z,24.80
2017-08-29T12:10:36.367Z,24.70
2017-08-29T12:13:05.184Z,24.80
2017-08-29T12:15:32.898Z,24.90
2017-08-29T12:18:00.587Z,25.00
2017-08-29T12:20:28.359Z,25.00
2017-08-29T12:22:56.110Z,25.10
2017-08-29T12:25:23.866Z,25.10
2017-08-29T12:27:51.649Z,25.30
2017-08-29T12:30:19.530Z,25.20
2017-08-29T12:32:47.175Z,25.00
2017-08-29T12:35:15.056Z,25.20
2017-08-29T12:37:42.708Z,25.20
2017-08-29T12:40:10.491Z,25.20
2017-08-29T12:42:38.056Z,25.20
2017-08-29T12:45:05.791Z,25.30
2017-08-29T12:47:33.448Z,25.40
2017-08-29T12:50:01.035Z,25.50
2017-08-29T12:52:28.602Z,25.50
2017-08-29T12:54:56.202Z,25.50
2017-08-29T12:57:23.882Z,25.60
2017-08-29T12:59:51.654Z,25.60
2017-08-29T13:02:19.428Z,25.60
2017-08-29T13:04:47.183Z,25.60
2017-08-29T13:07:14.812Z,25.50
2017-08-29T13:09:42.387Z,25.40
2017-08-29T13:12:10.176Z,25.60
2017-08-29T13:14:38.130Z,25.70
2017-08-29T13:17:05.730Z,25.70
2017-08-29T13:19:33.319Z,25.60
2017-08-29T13:22:00.903Z,25.80
2017-08-29T13:24:28.794Z,26.00
2017-08-29T13:26:56.435Z,25.80
2017-08-29T13:29:23.994Z,25.90
2017-08-29T13:31:51.583Z,25.90
2017-08-29T13:34:19.271Z,25.90
2017-08-29T13:36:46.878Z,26.00
2017-08-29T13:39:14.717Z,26.10
2017-08-29T13:41:42.291Z,26.10
2017-08-29T13:44:10.171Z,26.10
2017-08-29T13:46:37.740Z,26.20
2017-08-29T13:49:05.322Z,26.30
2017-08-29T13:51:32.888Z,26.40
2017-08-29T13:54:00.730Z,26.40
2017-08-29T13:56:28.392Z,26.40
2017-08-29T13:58:56.002Z,26.30
2017-08-29T14:01:23.570Z,26.50
2017-08-29T14:03:51.372Z,26.60
2017-08-29T14:06:18.968Z,26.80
2017-08-29T14:08:46.563Z,26.80
2017-08-29T14:11:14.347Z,26.80
2017-08-29T14:13:42.115Z,26.90
2017-08-29T14:16:09.680Z,26.80
2017-08-29T14:18:37.336Z,26.90
2017-08-29T14:21:04.914Z,26.90
2017-08-29T14:23:32.532Z,27.00
2017-08-29T14:26:00.325Z,27.10
2017-08-29T14:28:28.063Z,27.40
2017-08-29T14:30:55.660Z,27.50
2017-08-29T14:33:23.243Z,27.60
2017-08-29T14:35:50.875Z,27.30
2017-08-29T14:38:18.630Z,27.50
2017-08-29T14:40:46.211Z,27.40
2017-08-29T14:43:14.323Z,27.50
2017-08-29T14:45:42.101Z,27.60
2017-08-29T14:48:21.411Z,27.60
2017-08-29T14:50:48.999Z,27.60
2017-08-29T14:53:16.761Z,27.40
2017-08-29T14:55:44.355Z,27.50
2017-08-29T14:58:11.928Z,27.50
2017-08-29T15:00:39.525Z,27.60
2017-08-29T15:03:07.092Z,27.70
2017-08-29T15:05:34.699Z,27.90
2017-08-29T15:08:02.291Z,27.50
2017-08-29T15:10:29.867Z,27.60
2017-08-29T15:12:57.651Z,27.50
2017-08-29T15:15:25.321Z,27.50
2017-08-29T15:17:53.012Z,27.70
2017-08-29T15:20:20.582Z,27.60
2017-08-29T15:22:48.467Z,27.50
2017-08-29T15:25:16.779Z,27.50
2017-08-29T15:27:44.364Z,27.40
2017-08-29T15:30:11.967Z,27.50
2017-08-29T15:32:39.551Z,27.50
2017-08-29T15:35:07.227Z,27.30
2017-08-29T15:37:34.988Z,27.30
2017-08-29T15:40:02.556Z,27.20
2017-08-29T15:42:30.517Z,27.20
2017-08-29T15:44:58.271Z,27.10
2017-08-29T15:47:25.902Z,27.30
2017-08-29T15:49:53.504Z,27.70
2017-08-29T15:52:21.256Z,27.70
2017-08-29T15:54:49.220Z,27.60
2017-08-29T15:57:16.987Z,27.50
2017-08-29T15:59:44.764Z,27.60
2017-08-29T16:02:12.448Z,27.90
2017-08-29T16:04:40.189Z,28.30
2017-08-29T16:07:07.953Z,28.80
2017-08-29T16:09:35.534Z,29.40
2017-08-29T16:12:03.123Z,29.80
2017-08-29T16:14:30.709Z,30.20
2017-08-29T16:16:58.584Z,29.40
2017-08-29T16:19:26.178Z,29.30
2017-08-29T16:21:53.818Z,29.40
2017-08-29T16:24:21.396Z,29.10
2017-08-29T16:26:49.087Z,28.30
2017-08-29T16:29:16.904Z,27.90
2017-08-29T16:31:44.491Z,27.50
2017-08-29T16:34:12.067Z,27.40
2017-08-29T16:36:39.780Z,27.00
2017-08-29T16:39:07.344Z,26.60
2017-08-29T16:41:36.211Z,26.60
2017-08-29T16:44:04.055Z,26.70
2017-08-29T16:46:32.094Z,26.60
2017-08-29T16:49:00.135Z,26.60
2017-08-29T16:51:28.028Z,26.50
2017-08-29T16:53:55.655Z,26.30
2017-08-29T16:56:23.419Z,26.20
2017-08-29T16:58:51.198Z,26.00
2017-08-29T17:01:19.269Z,25.90
2017-08-29T17:03:46.995Z,26.00
2017-08-29T17:06:14.788Z,26.10
2017-08-29T17:08:42.560Z,26.00
2017-08-29T17:11:10.287Z,26.10
2017-08-29T17:13:37.878Z,26.20
2017-08-29T17:16:07.190Z,26.10
2017-08-29T17:18:37.195Z,26.10
2017-08-29T17:21:08.851Z,25.90
2017-08-29T17:23:36.498Z,25.80
2017-08-29T17:26:04.377Z,25.70
2017-08-29T17:28:32.708Z,25.60
2017-08-29T17:31:01.134Z,25.60
2017-08-29T17:33:30.638Z,25.60
2017-08-29T17:35:58.215Z,25.50
2017-08-29T17:38:26.165Z,25.50
2017-08-29T17:40:56.036Z,25.40
2017-08-29T17:43:24.254Z,25.30
2017-08-29T17:45:53.107Z,25.40
2017-08-29T17:48:20.820Z,25.20
2017-08-29T17:50:48.847Z,25.10
2017-08-29T17:53:16.699Z,24.90
2017-08-29T17:55:44.614Z,24.80
2017-08-29T17:58:12.243Z,24.80
2017-08-29T18:00:40.018Z,24.60
2017-08-29T18:03:07.612Z,24.60
2017-08-29T18:05:35.622Z,24.50
2017-08-29T18:08:03.187Z,24.50
2017-08-29T18:10:31.085Z,24.40
2017-08-29T18:12:58.850Z,24.20
2017-08-29T18:15:26.446Z,24.20
2017-08-29T18:17:54.068Z,24.10
2017-08-29T18:20:21.657Z,24.00
2017-08-29T18:22:49.255Z,24.00
2017-08-29T18:25:17.359Z,23.90
2017-08-29T18:27:44.935Z,23.80
2017-08-29T18:30:12.528Z,23.90
2017-08-29T18:32:40.102Z,23.90
2017-08-29T18:35:07.707Z,23.80
2017-08-29T18:37:35.278Z,23.70
2017-08-29T18:40:03.013Z,23.60
2017-08-29T18:42:30.579Z,23.50
2017-08-29T18:44:58.445Z,23.50
2017-08-29T18:47:26.019Z,23.40
2017-08-29T18:49:53.750Z,23.40
2017-08-29T18:52:21.347Z,23.30
2017-08-29T18:54:48.981Z,23.20
2017-08-29T18:57:16.731Z,23.10
2017-08-29T18:59:44.299Z,23.10
2017-08-29T19:02:11.952Z,23.00
2017-08-29T19:04:39.695Z,23.00
2017-08-29T19:07:07.912Z,23.00
2017-08-29T19:09:36.179Z,22.90
2017-08-29T19:12:04.346Z,22.90
2017-08-29T19:14:31.989Z,22.90
2017-08-29T19:16:59.783Z,22.80
2017-08-29T19:19:28.160Z,22.80
2017-08-29T19:21:55.743Z,22.80
2017-08-29T19:24:23.315Z,22.70
2017-08-29T19:26:51.131Z,22.60
2017-08-29T19:29:18.706Z,22.60
2017-08-29T19:31:46.278Z,22.60
2017-08-29T19:34:13.886Z,22.40
2017-08-29T19:36:41.565Z,22.40
2017-08-29T19:39:09.318Z,22.40
2017-08-29T19:41:37.073Z,22.30
2017-08-29T19:44:04.869Z,22.30
2017-08-29T19:46:32.638Z,22.20
2017-08-29T19:49:00.414Z,22.20
2017-08-29T19:51:27.984Z,22.20
2017-08-29T19:53:55.622Z,22.20
2017-08-29T19:56:23.357Z,22.10
2017-08-29T19:58:50.948Z,22.10
2017-08-29T20:01:18.584Z,22.10
2017-08-29T20:03:46.191Z,22.10
2017-08-29T20:06:13.817Z,22.00
2017-08-29T20:08:41.388Z,22.00
2017-08-29T20:11:08.990Z,22.10
2017-08-29T20:13:36.566Z,22.10
2017-08-29T20:16:04.247Z,22.10
2017-08-29T20:18:32.574Z,22.10
2017-08-29T20:21:00.212Z,22.10
2017-08-29T20:23:27.860Z,22.00
2017-08-29T20:25:55.936Z,22.00
2017-08-29T20:28:23.875Z,22.00
2017-08-29T20:30:51.462Z,22.00
2017-08-29T20:33:19.028Z,22.00
2017-08-29T20:35:46.621Z,22.00
2017-08-29T20:38:14.182Z,22.00
2017-08-29T20:40:41.903Z,22.00
2017-08-29T20:43:09.475Z,22.00
2017-08-29T20:45:37.227Z,22.00
2017-08-29T20:48:05.171Z,22.00
2017-08-29T20:50:32.852Z,22.00
2017-08-29T20:53:00.489Z,22.00
2017-08-29T20:55:29.141Z,22.00
2017-08-29T20:57:57.150Z,22.00
2017-08-29T21:00:24.725Z,22.00
2017-08-29T21:02:52.563Z,22.00
2017-08-29T21:05:20.139Z,22.00
2017-08-29T21:07:47.912Z,22.00
2017-08-29T21:10:15.476Z,21.90
2017-08-29T21:12:43.064Z,21.90
2017-08-29T21:15:10.639Z,21.90
2017-08-29T21:17:38.359Z,21.90
2017-08-29T21:20:05.927Z,21.90
2017-08-29T21:22:33.574Z,21.90
2017-08-29T21:25:01.168Z,21.90
2017-08-29T21:27:28.771Z,21.80
2017-08-29T21:29:56.543Z,21.80
2017-08-29T21:32:24.287Z,21.70
2017-08-29T21:34:51.887Z,21.70
2017-08-29T21:37:19.508Z,21.60
2017-08-29T21:39:47.291Z,21.60
2017-08-29T21:42:15.567Z,21.60
2017-08-29T21:44:43.343Z,21.60
2017-08-29T21:47:11.046Z,21.50
2017-08-29T21:49:38.644Z,21.50
2017-08-29T21:52:06.395Z,21.50
2017-08-29T21:54:34.193Z,21.50
2017-08-29T21:57:01.957Z,21.40
2017-08-29T21:59:30.023Z,21.40
2017-08-29T22:01:57.794Z,21.30
2017-08-29T22:04:26.165Z,21.30
2017-08-29T22:06:53.922Z,21.30
2017-08-29T22:09:21.700Z,21.40
2017-08-29T22:11:49.763Z,21.30
2017-08-29T22:14:17.518Z,21.30
2017-08-29T22:16:45.107Z,21.20
2017-08-29T22:19:13.679Z,21.20
2017-08-29T22:21:41.425Z,21.20
2017-08-29T22:24:09.044Z,21.20
2017-08-29T22:26:36.939Z,21.20
2017-08-29T22:29:04.726Z,21.20
2017-08-29T22:31:32.311Z,21.10
2017-08-29T22:33:59.915Z,21.10
2017-08-29T22:36:27.515Z,21.10
2017-08-29T22:38:55.131Z,21.10
2017-08-29T22:41:22.734Z,21.00
2017-08-29T22:43:50.394Z,21.00
2017-08-29T22:46:18.135Z,21.00
2017-08-29T22:48:45.906Z,20.90
2017-08-29T22:51:13.482Z,20.90
2017-08-29T22:53:41.435Z,20.80
2017-08-29T22:56:09.194Z,20.80
2017-08-29T22:58:36.844Z,20.80
2017-08-29T23:01:04.535Z,20.80
2017-08-29T23:03:32.995Z,20.80
2017-08-29T23:06:00.574Z,20.80
2017-08-29T23:08:28.167Z,20.80
2017-08-29T23:10:55.783Z,20.70
2017-08-29T23:13:23.834Z,20.70
2017-08-29T23:15:51.631Z,20.70
2017-08-29T23:18:19.687Z,20.70
2017-08-29T23:20:47.436Z,20.50
2017-08-29T23:23:15.330Z,20.50
2017-08-29T23:25:42.899Z,20.60
2017-08-29T23:28:10.508Z,20.60
2017-08-29T23:30:38.959Z,20.60
2017-08-29T23:33:06.679Z,20.60
2017-08-29T23:35:34.335Z,20.40
2017-08-29T23:38:01.971Z,20.50
2017-08-29T23:40:29.559Z,20.50
2017-08-29T23:42:57.327Z,20.50
2017-08-29T23:45:25.075Z,20.60
2017-08-29T23:47:52.643Z,20.60
2017-08-29T23:50:20.599Z,20.60
2017-08-29T23:52:48.811Z,20.70
2017-08-29T23:55:16.769Z,20.60
2017-08-29T23:57:44.503Z,20.60
